Time;durP1;ratioP1;P1;durP2;ratioP2;P2;SDS_P1;SDS_P2;PMS_P1;PMS_P2;Temp;Humidity;BMP_temperature;BMP_pressure;BME280_temperature;BME280_humidity;BME280_pressure;Samples;Min_cycle;Max_cycle;Signal;HPM_P1;HPM_P2
2021/10/27 00:01:16;;;;;;;4.63;2.45;;;12.80;99.90;;;11.45;98.57;101906.78;2569006;30;136986;-41
2021/10/27 00:03:44;;;;;;;4.07;2.20;;;12.80;99.90;;;11.43;98.89;101909.69;2566797;30;137351;-40
2021/10/27 00:06:12;;;;;;;5.25;2.13;;;12.80;99.90;;;11.44;98.64;101905.09;2567631;30;138680;-41
2021/10/27 00:08:40;;;;;;;8.27;3.17;;;12.80;99.90;;;11.43;98.87;101917.88;2566836;30;139056;-41
2021/10/27 00:11:08;;;;;;;3.95;2.35;;;12.80;99.90;;;11.50;98.88;101918.81;2568725;30;138234;-41
2021/10/27 00:13:38;;;;;;;3.45;2.08;;;12.90;99.90;;;11.43;98.95;101906.97;2567683;30;139232;-41
2021/10/27 00:16:06;;;;;;;3.95;2.28;;;12.80;99.90;;;11.45;99.46;101909.50;2567006;30;136950;-41
2021/10/27 00:18:36;;;;;;;5.22;2.33;;;12.90;99.90;;;11.47;98.92;101910.16;2568079;30;138268;-41
2021/10/27 00:21:04;;;;;;;;;;;12.80;99.90;;;11.45;99.24;101907.59;2568286;30;138275;-41
2021/10/27 00:23:32;;;;;;;5.45;2.30;;;12.80;99.90;;;11.48;98.94;101909.13;2569915;30;138391;-41
2021/10/27 00:26:00;;;;;;;4.20;1.98;;;12.90;99.90;;;11.45;99.28;101906.78;2568419;30;137607;-41
2021/10/27 00:28:27;;;;;;;5.28;2.03;;;12.80;99.90;;;11.44;99.54;101907.81;2565936;30;138564;-41
2021/10/27 00:30:55;;;;;;;4.05;2.35;;;12.80;99.90;;;11.44;99.48;101913.28;2567768;30;136972;-41
2021/10/27 00:33:23;;;;;;;5.53;2.28;;;12.90;99.90;;;11.43;99.81;101917.88;2565322;30;139171;-40
2021/10/27 00:35:50;;;;;;;3.75;2.35;;;12.80;99.90;;;11.48;99.75;101907.22;2568019;30;138259;-40
2021/10/27 00:38:18;;;;;;;4.55;2.45;;;12.80;99.90;;;11.52;99.97;101913.16;2567500;30;138630;-41
2021/10/27 00:40:46;;;;;;;4.97;2.15;;;12.90;99.90;;;11.50;100.00;101916.06;2567691;30;137097;-41
2021/10/27 00:43:14;;;;;;;3.72;2.33;;;12.90;99.90;;;11.48;100.00;101909.94;2565616;30;139126;-41
2021/10/27 00:45:42;;;;;;;3.80;2.17;;;12.90;99.90;;;11.47;99.92;101913.72;2566230;30;138060;-41
2021/10/27 00:48:10;;;;;;;4.65;2.40;;;12.90;99.90;;;11.45;100.00;101910.34;2568862;30;137186;-41
2021/10/27 00:50:38;;;;;;;4.38;2.40;;;12.90;99.90;;;11.45;100.00;101910.34;2565301;30;137359;-40
2021/10/27 00:53:06;;;;;;;4.05;2.50;;;12.80;99.90;;;11.49;100.00;101916.28;2566703;30;137529;-41
2021/10/27 00:55:33;;;;;;;3.70;2.15;;;12.80;99.90;;;11.58;99.54;101920.59;2569055;30;137610;-40
2021/10/27 00:58:03;;;;;;;5.30;1.98;;;12.90;99.90;;;11.50;99.62;101917.97;2566962;30;139378;-40
2021/10/27 01:00:31;;;;;;;4.10;2.00;;;12.90;99.90;;;11.49;100.00;101910.81;2566520;30;138505;-41
2021/10/27 01:02:59;;;;;;;5.68;2.20;;;12.90;99.90;;;11.48;100.00;101914.59;2568177;30;138125;-41
2021/10/27 01:05:27;;;;;;;2.85;1.85;;;12.90;99.90;;;11.51;100.00;101914.19;2568223;30;138124;-40
2021/10/27 01:07:57;;;;;;;3.05;2.05;;;12.90;99.90;;;11.47;99.99;101913.72;2568865;30;137304;-40
2021/10/27 01:10:25;;;;;;;4.18;1.98;;;12.90;99.90;;;11.47;100.00;101919.19;2569734;30;137558;-40
2021/10/27 01:12:52;;;;;;;4.70;1.85;;;12.80;99.90;;;11.48;100.00;101920.06;2568708;30;136977;-41
2021/10/27 01:15:20;;;;;;;6.05;2.03;;;12.90;99.90;;;11.45;100.00;101918.53;2567721;30;136813;-40
2021/10/27 01:17:48;;;;;;;4.30;2.05;;;12.90;99.90;;;11.42;100.00;101918.94;2567915;30;138697;-41
2021/10/27 01:20:15;;;;;;;3.90;1.67;;;12.80;99.90;;;11.45;100.00;101912.25;2568165;30;137592;-41
2021/10/27 01:22:43;;;;;;;3.80;2.47;;;12.80;99.90;;;11.47;100.00;101915.63;2566958;30;137375;-41
2021/10/27 01:25:12;;;;;;;3.10;1.70;;;12.90;99.90;;;11.40;100.00;101903.75;2568912;30;137097;-40
2021/10/27 01:27:47;;;;;;;5.03;2.05;;;12.80;99.90;;;11.41;100.00;101908.22;2568467;30;138952;-41
2021/10/27 01:30:19;;;;;;;5.13;1.92;;;12.80;99.90;;;11.42;100.00;101910.72;2567674;30;136782;-40
2021/10/27 01:32:49;;;;;;;3.50;2.00;;;12.80;99.90;;;11.43;100.00;101911.59;2567487;30;137333;-40
2021/10/27 01:35:17;;;;;;;3.75;1.70;;;12.80;99.90;;;11.39;100.00;101902.91;2567226;30;137538;-41
2021/10/27 01:37:46;;;;;;;3.72;1.85;;;12.80;99.90;;;11.40;100.00;101901.00;2567464;30;137503;-41
2021/10/27 01:40:18;;;;;;;4.53;2.00;;;12.80;99.90;;;11.34;100.00;101892.56;2567566;30;137081;-41
2021/10/27 01:42:49;;;;;;;5.88;1.95;;;12.80;99.90;;;11.36;100.00;101895.94;2567251;30;138328;-41
2021/10/27 01:45:17;;;;;;;6.03;2.88;;;12.80;99.90;;;11.45;100.00;101893.13;2565291;30;138850;-41
2021/10/27 01:47:46;;;;;;;4.47;2.15;;;12.80;99.90;;;11.37;100.00;101888.59;2567578;30;139015;-41
2021/10/27 01:50:15;;;;;;;5.68;1.90;;;12.80;99.90;;;11.41;100.00;101889.06;2568767;30;137573;-41
2021/10/27 01:52:43;;;;;;;4.25;1.90;;;12.80;99.90;;;11.37;100.00;101892.16;2568101;30;137395;-41
2021/10/27 01:55:10;;;;;;;5.75;2.15;;;12.80;99.90;;;11.39;100.00;101889.25;2565267;30;137411;-40
2021/10/27 01:57:38;;;;;;;4.72;2.15;;;12.80;99.90;;;11.42;100.00;101893.50;2567737;30;138178;-41
2021/10/27 02:00:08;;;;;;;5.07;2.15;;;12.80;99.90;;;11.39;100.00;101893.84;2567760;30;136856;-40
2021/10/27 02:02:38;;;;;;;4.47;2.25;;;12.80;99.90;;;11.37;100.00;101891.34;2568431;30;137166;-40
2021/10/27 02:05:07;;;;;;;5.38;2.30;;;12.80;99.90;;;11.43;100.00;101892.47;2567181;30;137485;-41
2021/10/27 02:07:35;;;;;;;5.35;2.40;;;12.80;99.90;;;11.44;100.00;101891.44;2567460;30;137393;-41
2021/10/27 02:10:09;;;;;;;7.35;2.85;;;12.80;99.90;;;11.47;100.00;101893.75;2567604;30;137239;-40
2021/10/27 02:12:39;;;;;;;5.80;2.47;;;12.90;99.90;;;11.52;100.00;101888.56;2567544;30;138131;-40
2021/10/27 02:15:10;;;;;;;4.95;2.45;;;12.90;99.90;;;11.55;99.61;101887.34;2567579;30;137611;-40
2021/10/27 02:17:38;;;;;;;6.47;2.63;;;12.90;99.90;;;11.52;99.83;101885.84;2568070;30;136821;-40
2021/10/27 02:20:08;;;;;;;7.40;2.63;;;12.90;99.90;;;11.48;99.61;101887.25;2566743;30;136659;-41
2021/10/27 02:22:36;;;;;;;5.35;2.28;;;12.90;99.90;;;11.47;99.96;101886.41;2568291;30;137489;-40
2021/10/27 02:25:04;;;;;;;;;;;12.90;99.90;;;11.52;99.62;101894.88;2568733;30;137539;-40
2021/10/27 02:27:32;;;;;;;4.88;2.17;;;12.90;99.90;;;11.51;99.91;101884.13;2567719;30;138422;-41
2021/10/27 02:29:59;;;;;;;5.43;1.98;;;12.90;99.90;;;11.49;99.88;101891.69;2566857;30;137340;-41
2021/10/27 02:32:27;;;;;;;6.55;2.47;;;12.90;99.90;;;11.56;99.71;101881.66;2567961;30;138188;-41
2021/10/27 02:34:54;;;;;;;7.53;2.47;;;12.90;99.90;;;11.57;99.46;101880.63;2567626;30;138688;-41
2021/10/27 02:37:22;;;;;;;9.70;2.65;;;12.90;99.90;;;11.56;99.05;101878.09;2567798;30;137544;-40
2021/10/27 02:39:49;;;;;;;5.70;2.50;;;13.00;99.90;;;11.55;99.14;101882.72;2568069;30;136843;-41
2021/10/27 02:42:17;;;;;;;4.63;2.17;;;12.90;99.90;;;11.58;98.76;101892.41;2577949;30;137498;-39
2021/10/27 02:44:44;;;;;;;;;;;12.90;99.90;;;11.53;98.93;101879.31;2566445;30;137627;-38
2021/10/27 02:47:12;;;;;;;5.28;2.63;;;12.90;99.90;;;11.57;98.70;101885.25;2569252;30;137924;-39
2021/10/27 02:49:40;;;;;;;5.80;2.60;;;13.00;99.90;;;11.58;98.46;101890.53;2569449;30;138233;-39
2021/10/27 02:52:07;;;;;;;4.07;2.50;;;13.00;99.90;;;11.60;98.34;101890.34;2569066;30;139244;-39
2021/10/27 02:54:35;;;;;;;5.30;2.40;;;13.00;99.90;;;11.58;98.63;101887.78;2568756;30;137079;-38
2021/10/27 02:57:03;;;;;;;5.07;2.20;;;13.00;99.90;;;11.58;98.65;101892.41;2567014;30;137395;-39
2021/10/27 02:59:31;;;;;;;4.10;2.33;;;13.00;99.90;;;11.57;98.42;101898.94;2567477;30;137857;-39
2021/10/27 03:01:59;;;;;;;5.13;2.05;;;12.90;99.90;;;11.57;98.36;101888.81;2569248;30;138649;-39
2021/10/27 03:04:27;;;;;;;5.40;2.90;;;12.90;99.90;;;11.54;98.66;101885.63;2567175;30;137685;-39
2021/10/27 03:06:55;;;;;;;5.93;2.28;;;12.90;99.90;;;11.55;98.47;101888.19;2569189;30;137595;-39
2021/10/27 03:09:22;;;;;;;5.47;2.20;;;12.90;99.90;;;11.50;98.45;101885.19;2569480;30;137526;-39
2021/10/27 03:11:52;;;;;;;6.00;2.63;;;12.90;99.90;;;11.49;98.78;101888.94;2567622;30;139176;-39
2021/10/27 03:14:20;;;;;;;5.25;2.28;;;12.90;99.90;;;11.51;98.44;101897.81;2567273;30;138383;-38
2021/10/27 03:16:48;;;;;;;6.70;2.42;;;12.90;99.90;;;11.59;98.17;101894.13;2567652;30;138462;-38
2021/10/27 03:19:15;;;;;;;;;;;12.90;99.90;;;11.55;98.22;101901.84;2568098;30;136730;-39
2021/10/27 03:21:43;;;;;;;7.60;2.25;;;12.90;99.90;;;11.51;98.36;101897.81;2569882;30;137256;-39
2021/10/27 03:24:11;;;;;;;4.75;2.13;;;12.90;99.90;;;11.49;98.50;101894.41;2567100;30;137456;-39
2021/10/27 03:26:38;;;;;;;7.68;2.42;;;12.90;99.90;;;11.52;98.29;101904.97;2567165;30;138241;-39
2021/10/27 03:29:06;;;;;;;7.28;2.50;;;12.90;99.90;;;11.51;98.60;101900.53;2571026;30;137604;-39
2021/10/27 03:31:34;;;;;;;5.75;2.50;;;12.90;99.90;;;11.45;98.33;101891.22;2568990;30;138533;-39
2021/10/27 03:34:02;;;;;;;;;;;12.90;99.90;;;11.48;98.53;101895.47;2569226;30;136906;-39
2021/10/27 03:36:30;;;;;;;4.88;2.20;;;12.90;99.90;;;11.55;97.86;101901.84;2567076;30;138224;-39
2021/10/27 03:38:58;;;;;;;5.32;2.22;;;12.90;99.90;;;11.55;97.77;101898.28;2566802;30;137867;-39
2021/10/27 03:41:26;;;;;;;7.35;2.13;;;12.90;99.90;;;11.56;97.62;101900.81;2568749;30;138395;-39
2021/10/27 03:43:53;;;;;;;5.75;2.35;;;13.00;99.90;;;11.60;97.50;101893.06;2567327;30;137875;-39
2021/10/27 03:46:21;;;;;;;5.13;2.10;;;13.00;99.90;;;11.56;97.62;101895.34;2567555;30;138305;-39
2021/10/27 03:48:49;;;;;;;6.93;2.60;;;12.90;99.90;;;11.61;97.49;101895.59;2569549;30;137418;-39
2021/10/27 03:51:17;;;;;;;5.40;2.50;;;13.00;99.90;;;11.59;97.36;101894.13;2568153;30;138880;-39
2021/10/27 03:53:44;;;;;;;5.90;2.28;;;13.00;99.90;;;11.52;97.95;101902.22;2569386;30;138325;-39
2021/10/27 03:56:12;;;;;;;8.23;2.70;;;12.90;99.90;;;11.51;98.34;101903.28;2567572;30;138543;-39
2021/10/27 03:58:40;;;;;;;6.35;2.70;;;12.90;99.90;;;11.42;98.37;101890.78;2568575;30;137692;-39
2021/10/27 04:01:08;;;;;;;8.45;3.03;;;12.90;99.90;;;11.50;98.11;101905.13;2569589;30;138294;-39
2021/10/27 04:03:36;;;;;;;;;;;12.90;99.90;;;11.51;98.28;101903.28;2569077;30;137474;-39
2021/10/27 04:06:04;;;;;;;5.88;2.60;;;12.90;99.90;;;11.50;98.16;101907.03;2568766;30;138423;-38
2021/10/27 04:08:31;;;;;;;6.65;2.47;;;12.90;99.90;;;11.48;98.52;101904.50;2571058;30;137595;-39
2021/10/27 04:10:59;;;;;;;7.32;3.05;;;12.90;99.90;;;11.51;98.26;101906.00;2569434;30;136561;-39
2021/10/27 04:13:27;;;;;;;10.73;3.47;;;12.90;99.90;;;11.47;98.74;101901.97;2568045;30;136815;-39
2021/10/27 04:15:54;;;;;;;10.27;3.83;;;12.90;99.90;;;11.48;98.57;101903.66;2569344;30;138497;-39
2021/10/27 04:18:22;;;;;;;6.90;3.40;;;12.80;99.90;;;11.44;98.82;101908.66;2566393;30;137989;-38
2021/10/27 04:20:49;;;;;;;6.60;3.30;;;12.80;99.90;;;11.42;98.92;101905.25;2570702;30;137949;-40
2021/10/27 04:23:17;;;;;;;7.95;3.75;;;12.80;99.90;;;11.46;99.04;101908.47;2570152;30;137554;-39
2021/10/27 04:25:44;;;;;;;6.85;3.58;;;12.90;99.90;;;11.46;98.75;101903.00;2568233;30;138812;-39
2021/10/27 04:28:13;;;;;;;11.57;4.07;;;12.90;99.90;;;11.48;98.48;101917.31;2568868;30;136896;-39
2021/10/27 04:30:41;;;;;;;6.82;3.75;;;12.80;99.90;;;11.46;98.75;101912.03;2566823;30;138916;-39
2021/10/27 04:33:21;;;;;;;9.02;3.55;;;12.80;99.90;;;11.48;98.21;101909.94;2569255;30;137693;-39
2021/10/27 04:35:52;;;;;;;9.48;3.50;;;12.90;99.90;;;11.48;98.25;101914.59;2569389;30;138045;-39
2021/10/27 04:38:21;;;;;;;5.50;3.13;;;12.90;99.90;;;11.49;98.06;101906.19;2568868;30;137812;-39
2021/10/27 04:40:50;;;;;;;8.23;2.75;;;12.80;99.90;;;11.46;98.03;101906.56;2569196;30;138296;-39
2021/10/27 04:43:17;;;;;;;13.32;3.65;;;12.90;99.90;;;11.49;97.78;101899.88;2568139;30;138332;-39
2021/10/27 04:45:45;;;;;;;8.80;3.17;;;12.90;99.90;;;11.48;97.65;101904.50;2569843;30;137098;-39
2021/10/27 04:48:13;;;;;;;;;;;12.90;99.90;;;11.45;97.60;101910.34;2568274;30;137369;-38
2021/10/27 04:50:41;;;;;;;6.38;3.30;;;12.80;99.90;;;11.48;97.48;101914.59;2569376;30;138600;-39
2021/10/27 04:53:17;;;;;;;;;;;12.90;99.90;;;11.48;97.50;101920.88;2568796;30;137969;-39
2021/10/27 04:55:46;;;;;;;8.77;3.15;;;12.80;99.90;;;11.48;97.28;101917.31;2569691;30;138653;-39
2021/10/27 04:58:14;;;;;;;6.25;3.38;;;12.90;99.90;;;11.52;96.64;101922.19;2568751;30;137637;-38
2021/10/27 05:00:42;;;;;;;7.40;3.30;;;12.90;99.90;;;11.54;96.91;101927.47;2569461;30;137466;-39
2021/10/27 05:03:10;;;;;;;8.43;3.55;;;12.90;99.90;;;11.54;96.38;101924.75;2568040;30;136862;-39
2021/10/27 05:05:58;;;;;;;;;;;12.90;99.90;;;11.52;96.38;101916.72;2568733;30;139011;-38
2021/10/27 05:08:25;;;;;;;9.52;3.22;;;12.90;99.90;;;11.54;96.39;101919.28;2567598;30;137423;-39
2021/10/27 05:10:53;;;;;;;9.00;3.47;;;12.90;99.90;;;11.58;95.80;101919.75;2568531;30;137419;-39
2021/10/27 05:13:21;;;;;;;8.70;3.20;;;12.90;99.90;;;11.57;96.09;101920.78;2567389;30;137711;-39
2021/10/27 05:15:50;;;;;;;9.43;3.55;;;13.00;99.90;;;11.56;96.03;101922.66;2569818;30;138550;-38
2021/10/27 05:18:18;;;;;;;5.63;2.97;;;12.90;99.90;;;11.52;96.43;101907.69;2567685;30;137552;-39
2021/10/27 05:20:47;;;;;;;6.38;3.25;;;12.90;99.90;;;11.49;96.29;101919.00;2568407;30;138481;-39
2021/10/27 05:23:15;;;;;;;5.45;2.83;;;12.90;99.90;;;11.47;96.57;101916.47;2569467;30;137103;-39
2021/10/27 05:25:43;;;;;;;7.57;3.50;;;12.90;99.90;;;11.39;96.63;101911.13;2568824;30;138582;-39
2021/10/27 05:28:11;;;;;;;6.45;3.20;;;12.80;99.90;;;11.37;96.97;101900.38;2570038;30;137593;-39
2021/10/27 05:30:39;;;;;;;6.03;3.00;;;12.80;99.90;;;11.39;97.29;101904.78;2570095;30;138966;-39
2021/10/27 05:33:07;;;;;;;8.43;3.67;;;12.80;99.90;;;11.37;97.18;101903.09;2569529;30;137424;-38
2021/10/27 05:35:34;;;;;;;7.68;3.90;;;12.80;99.90;;;11.42;96.93;101904.44;2569246;30;137265;-39
2021/10/27 05:38:02;;;;;;;8.15;4.28;;;12.80;99.90;;;11.40;97.32;101907.34;2567929;30;137739;-39
2021/10/27 05:40:30;;;;;;;8.70;4.18;;;12.80;99.90;;;11.37;97.65;101905.00;2568416;30;139062;-39
2021/10/27 05:42:58;;;;;;;12.77;5.55;;;12.80;99.90;;;11.40;97.03;101906.47;2570298;30;137325;-39
2021/10/27 05:45:27;;;;;;;;;;;12.80;99.90;;;11.41;96.56;101905.47;2567884;30;137792;-39
2021/10/27 05:47:57;;;;;;;10.57;5.13;;;12.80;99.90;;;11.47;96.23;101907.44;2566509;30;136684;-39
2021/10/27 05:55:39;;;;;;;8.57;5.22;;;12.80;99.90;;;11.36;96.68;101908.78;2568221;30;138467;-38
2021/10/27 05:58:09;;;;;;;;;;;12.80;99.90;;;11.43;96.94;101912.41;2569519;30;137967;-38
2021/10/27 06:00:39;;;;;;;9.93;5.40;;;12.80;99.90;;;11.39;96.71;101918.44;2569137;30;138585;-39
2021/10/27 06:03:07;;;;;;;13.43;5.82;;;12.80;99.90;;;11.35;97.23;101910.63;2567836;30;138210;-39
2021/10/27 06:05:36;;;;;;;11.68;5.78;;;12.80;99.90;;;11.35;97.08;101920.75;2568025;30;138477;-39
2021/10/27 06:08:05;;;;;;;9.63;5.22;;;12.70;99.90;;;11.35;97.16;101923.47;2570352;30;137048;-38
2021/10/27 06:10:33;;;;;;;9.00;5.03;;;12.70;99.90;;;11.32;97.23;101924.69;2568509;30;139321;-39
2021/10/27 06:13:05;;;;;;;8.48;4.43;;;12.70;99.90;;;11.33;97.02;101929.09;2568983;30;136870;-39
2021/10/27 06:15:34;;;;;;;11.60;4.97;;;12.80;99.90;;;11.33;97.12;101929.09;2565687;30;138692;-38
2021/10/27 06:18:03;;;;;;;7.40;3.85;;;12.70;99.90;;;11.31;97.29;101923.00;2568106;30;137321;-39
2021/10/27 06:20:31;;;;;;;9.45;4.05;;;12.70;99.90;;;11.29;97.68;101927.81;2567670;30;137273;-39
2021/10/27 06:22:59;;;;;;;8.02;3.90;;;12.70;99.90;;;11.27;97.86;101931.75;2566060;30;138181;-39
2021/10/27 06:25:27;;;;;;;8.93;3.60;;;12.70;99.90;;;11.25;97.88;101937.41;2569522;30;138190;-39
2021/10/27 06:28:03;;;;;;;9.02;3.70;;;12.70;99.90;;;11.27;98.07;101940.81;2568970;30;137619;-38
2021/10/27 06:33:43;;;;;;;7.70;3.25;;;12.70;99.90;;;11.31;97.48;101936.66;2567854;30;137498;-38
2021/10/27 06:46:49;;;;;;;8.70;3.95;;;12.70;99.90;;;11.31;97.18;101949.47;2568004;30;138497;-39
2021/10/27 06:49:17;;;;;;;6.95;3.53;;;12.70;99.90;;;11.34;97.12;101957.28;2566989;30;137952;-39
2021/10/27 06:51:45;;;;;;;6.95;3.40;;;12.70;99.90;;;11.34;97.29;101958.13;2568293;30;137230;-39
2021/10/27 06:54:13;;;;;;;5.70;3.15;;;12.70;99.90;;;11.37;96.90;101962.38;2567982;30;137311;-39
2021/10/27 06:56:41;;;;;;;7.18;2.95;;;12.70;99.90;;;11.36;96.71;101961.50;2569494;30;138582;-39
2021/10/27 07:06:55;;;;;;;7.38;3.08;;;12.80;99.90;;;11.35;96.53;101961.72;2568875;30;138233;-39
2021/10/27 07:17:48;;;;;;;7.55;2.85;;;12.80;99.90;;;11.48;96.25;101985.63;2567443;30;138492;-39
2021/10/27 07:20:16;;;;;;;5.95;2.50;;;12.90;99.90;;;11.50;95.88;101983.56;2568797;30;136694;-39
2021/10/27 07:22:44;;;;;;;;;;;12.90;99.90;;;11.49;95.46;101981.88;2567862;30;139180;-39
2021/10/27 07:25:15;;;;;;;7.70;3.20;;;12.90;99.90;;;11.52;94.80;101981.47;2570246;30;137255;-38
2021/10/27 07:27:44;;;;;;;6.00;2.53;;;12.90;99.90;;;11.56;94.85;101982.78;2570676;30;138382;-39
2021/10/27 07:30:13;;;;;;;5.13;2.70;;;12.90;99.90;;;11.54;94.93;101984.88;2567394;30;136912;-39
2021/10/27 07:32:41;;;;;;;7.15;2.90;;;13.00;99.90;;;11.63;94.40;101988.34;2569685;30;139401;-39
2021/10/27 07:40:44;;;;;;;8.85;2.70;;;13.00;99.90;;;11.67;94.07;101995.13;2568816;30;137789;-38
2021/10/27 07:43:23;;;;;;;7.03;2.78;;;13.00;99.90;;;11.69;93.79;101993.03;2569810;30;138208;-39
2021/10/27 07:45:53;;;;;;;5.03;2.67;;;13.10;99.90;;;11.66;93.26;101988.78;2569234;30;136951;-39
2021/10/27 07:48:22;;;;;;;5.47;2.70;;;13.00;99.90;;;11.68;94.00;101998.72;2569537;30;138513;-39
2021/10/27 07:50:51;;;;;;;8.52;2.70;;;13.00;99.90;;;11.71;94.01;102004.63;2569816;30;137420;-39
2021/10/27 07:53:22;;;;;;;6.63;2.28;;;13.10;99.90;;;11.74;93.36;102006.16;2567959;30;137214;-39
2021/10/27 07:55:51;;;;;;;5.93;2.33;;;13.10;99.90;;;11.72;93.54;101997.28;2566484;30;137691;-39
2021/10/27 07:58:22;;;;;;;6.68;2.90;;;13.10;99.90;;;11.74;93.84;102001.50;2569686;30;137958;-39
2021/10/27 08:00:53;;;;;;;7.35;2.58;;;13.10;99.90;;;11.75;93.59;102002.38;2568454;30;136933;-39
2021/10/27 08:03:21;;;;;;;5.30;2.85;;;13.10;99.90;;;11.77;93.40;102003.03;2568715;30;137990;-39
2021/10/27 08:05:49;;;;;;;6.53;2.55;;;13.10;99.90;;;11.79;93.00;102007.25;2570142;30;137564;-38
2021/10/27 08:08:22;;;;;;;9.35;2.83;;;13.20;99.90;;;11.77;93.07;102005.75;2569687;30;137152;-39
2021/10/27 08:10:52;;;;;;;4.57;2.58;;;13.20;99.90;;;11.83;93.05;102010.47;2567806;30;138505;-39
2021/10/27 08:13:21;;;;;;;5.03;2.30;;;13.20;99.90;;;11.85;92.83;102005.63;2567757;30;137931;-38
2021/10/27 08:15:51;;;;;;;6.57;3.00;;;13.20;99.90;;;11.88;92.15;102010.72;2567881;30;137761;-39
2021/10/27 08:18:19;;;;;;;6.45;2.47;;;13.20;99.90;;;11.88;92.17;102013.47;2566910;30;138557;-38
2021/10/27 08:20:49;;;;;;;8.85;2.50;;;13.20;99.90;;;11.91;92.47;102013.06;2569402;30;138050;-39
2021/10/27 08:23:20;;;;;;;5.97;2.30;;;13.20;99.90;;;11.87;91.72;102000.81;2568429;30;138634;-39
2021/10/27 08:25:56;;;;;;;6.30;2.47;;;13.20;99.90;;;11.93;91.94;102016.50;2569530;30;137651;-39
2021/10/27 08:34:04;;;;;;;6.47;2.05;;;13.30;99.90;;;11.97;90.94;102014.19;2569054;30;137118;-39
2021/10/27 08:36:33;;;;;;;4.28;2.15;;;13.30;99.90;;;12.02;91.52;102024.59;2567780;30;137433;-39
2021/10/27 08:39:04;;;;;;;4.38;2.25;;;13.30;99.90;;;12.08;91.57;102015.63;2570957;30;139711;-39
2021/10/27 08:44:28;;;;;;;4.82;2.17;;;13.40;99.90;;;12.14;90.14;102020.31;2565662;30;138169;-41
2021/10/27 08:46:58;;;;;;;6.30;2.10;;;13.40;99.90;;;12.15;90.14;102024.72;2568741;30;137025;-40
2021/10/27 08:49:28;;;;;;;5.20;2.10;;;13.40;99.90;;;12.14;89.43;102020.31;2568603;30;136809;-41
2021/10/27 08:51:59;;;;;;;5.40;2.17;;;13.50;99.90;;;12.20;89.78;102019.56;2567834;30;136913;-40
2021/10/27 08:54:28;;;;;;;7.50;2.08;;;13.50;99.90;;;12.26;88.95;102019.81;2567646;30;138478;-41
2021/10/27 08:56:58;;;;;;;4.75;2.38;;;13.50;99.90;;;12.27;89.02;102018.75;2568895;30;137603;-41
2021/10/27 09:10:09;;;;;;;6.15;2.20;;;13.70;99.90;;;12.36;88.94;102032.13;2567999;30;138896;-41
2021/10/27 10:06:47;;;;;;;4.93;2.30;;;15.00;99.90;;;13.90;81.08;102020.53;2567576;30;138214;-41
2021/10/27 10:09:19;;;;;;;6.15;2.20;;;15.10;99.90;;;14.01;81.08;102010.00;2568615;30;136829;-40
2021/10/27 10:11:50;;;;;;;5.55;2.15;;;15.10;99.90;;;14.07;80.15;102018.25;2567947;30;138255;-41
2021/10/27 10:14:19;;;;;;;4.93;2.17;;;15.20;99.90;;;14.06;81.51;102007.50;2567565;30;137389;-41
2021/10/27 10:16:56;;;;;;;6.88;2.40;;;15.20;99.90;;;14.14;79.95;102017.44;2566760;30;138147;-41
2021/10/27 10:19:38;;;;;;;4.22;2.20;;;15.30;99.90;;;14.31;80.46;102017.88;2568115;30;138305;-41
2021/10/27 10:22:36;;;;;;;4.40;2.33;;;15.40;99.90;;;14.43;80.73;102013.47;2567257;30;138350;-41
2021/10/27 10:25:19;;;;;;;6.18;2.17;;;15.50;99.90;;;14.47;78.63;102014.75;2568101;30;136951;-41
2021/10/27 10:27:55;;;;;;;5.40;2.13;;;15.60;99.90;;;14.50;80.35;102017.06;2567973;30;137795;-41
2021/10/27 10:30:35;;;;;;;5.18;2.13;;;15.60;99.90;;;14.47;79.89;102011.19;2568511;30;136909;-41
2021/10/27 10:33:12;;;;;;;6.75;2.38;;;15.70;99.90;;;14.38;79.14;102010.53;2567840;30;138522;-41
2021/10/27 11:40:43;;;;;;;5.38;1.85;;;17.40;99.90;;;16.27;72.00;101966.03;2567255;30;139065;-41
2021/10/27 11:50:43;;;;;;;6.45;1.80;;;17.50;99.90;;;16.38;70.59;101962.56;2568146;30;137388;-41
2021/10/27 11:53:31;;;;;;;6.32;1.80;;;17.50;99.90;;;16.44;70.38;101953.38;2569009;30;137014;-41
2021/10/27 11:56:15;;;;;;;6.15;1.67;;;17.60;99.90;;;16.54;70.42;101945.47;2568695;30;137453;-41
2021/10/27 11:58:47;;;;;;;3.85;1.60;;;17.60;99.90;;;16.59;69.98;101950.31;2569716;30;136698;-41
2021/10/27 12:01:34;;;;;;;3.78;1.38;;;17.70;99.90;;;16.68;68.88;101945.34;2568803;30;137319;-41
2021/10/27 12:04:13;;;;;;;3.28;1.40;;;17.70;99.90;;;16.61;67.52;101945.44;2568117;30;137128;-41
2021/10/27 12:15:29;;;;;;;4.88;1.45;;;17.80;99.90;;;16.56;67.80;101936.97;2566835;30;138456;-41
2021/10/27 12:18:05;;;;;;;4.68;1.50;;;17.70;99.90;;;16.60;68.47;101937.38;2568042;30;139423;-41
2021/10/27 12:20:40;;;;;;;3.20;1.38;;;17.80;99.90;;;16.68;69.91;101939.84;2567162;30;138569;-41
2021/10/27 12:23:26;;;;;;;5.25;1.55;;;17.80;99.90;;;16.80;67.99;101931.66;2567876;30;137206;-41
2021/10/27 12:26:07;;;;;;;4.97;1.70;;;17.80;99.90;;;16.92;69.00;101931.75;2567106;30;137027;-41
2021/10/27 12:28:35;;;;;;;3.55;1.17;;;18.00;99.90;;;16.88;67.52;101933.28;2567566;30;137689;-40
2021/10/27 12:31:32;;;;;;;7.05;1.55;;;18.00;99.90;;;16.75;67.56;101928.75;2565998;30;136839;-41
2021/10/27 12:34:00;;;;;;;4.22;1.40;;;17.90;99.90;;;16.66;69.77;101923.53;2568280;30;137099;-41
2021/10/27 12:36:29;;;;;;;2.35;1.30;;;17.90;99.90;;;16.64;68.81;101924.81;2567977;30;137809;-41
2021/10/27 12:39:28;;;;;;;4.82;1.30;;;17.80;99.90;;;16.62;68.65;101927.81;2567856;30;139636;-41
2021/10/27 12:42:07;;;;;;;2.20;0.95;;;17.80;99.90;;;16.70;66.46;101920.34;2568425;30;136951;-41
2021/10/27 12:44:52;;;;;;;3.70;0.90;;;17.80;99.90;;;16.68;68.04;101915.88;2568102;30;137662;-41
2021/10/27 12:47:29;;;;;;;2.80;0.82;;;17.90;99.90;;;16.79;68.09;101916.19;2567673;30;137622;-41
2021/10/27 12:50:12;;;;;;;4.75;0.90;;;17.90;99.90;;;16.88;66.31;101900.22;2565453;30;138586;-40
2021/10/27 12:52:45;;;;;;;3.90;1.10;;;18.00;99.90;;;17.05;65.77;101895.81;2568063;30;137173;-40
2021/10/27 12:55:24;;;;;;;5.78;1.20;;;18.10;99.90;;;17.20;65.02;101900.09;2566655;30;138755;-40
2021/10/27 12:58:06;;;;;;;3.03;1.10;;;18.20;99.90;;;17.17;65.53;101898.66;2568500;30;137238;-41
2021/10/27 13:06:58;;;;;;;4.80;1.20;;;18.20;99.90;;;16.96;66.76;101905.41;2566928;30;137706;-41
2021/10/27 13:10:01;;;;;;;3.58;1.13;;;18.20;99.90;;;16.92;65.72;101895.94;2567655;30;137313;-41
2021/10/27 13:22:04;;;;;;;3.72;1.35;;;18.00;99.90;;;16.81;67.31;101892.88;2568531;30;137672;-41
2021/10/27 13:31:59;;;;;;;4.70;1.00;;;18.00;99.90;;;16.77;67.43;101891.66;2567890;30;137215;-41
2021/10/27 13:34:27;;;;;;;4.05;1.20;;;18.00;99.90;;;16.73;68.99;101898.69;2567878;30;137907;-41
2021/10/27 13:36:55;;;;;;;3.47;1.00;;;17.90;99.90;;;16.74;67.64;101897.63;2566679;30;138264;-41
2021/10/27 13:39:23;;;;;;;2.08;0.93;;;17.90;99.90;;;16.93;68.39;101892.09;2566478;30;137319;-41
2021/10/27 13:41:58;;;;;;;3.47;1.38;;;18.00;99.90;;;17.09;66.73;101891.53;2569540;30;137001;-40
2021/10/27 13:44:30;;;;;;;3.97;1.20;;;18.20;99.90;;;17.23;68.36;101900.47;2567769;30;138333;-39
2021/10/27 14:06:08;;;;;;;2.95;1.00;;;18.40;99.90;;;17.24;68.00;101868.25;2567933;30;138278;-41
2021/10/27 14:08:59;;;;;;;2.92;1.17;;;18.40;99.90;;;17.22;67.28;101871.22;2568338;30;136916;-41
2021/10/27 14:20:12;;;;;;;3.72;1.20;;;18.30;99.90;;;16.94;66.68;101864.31;2566769;30;136748;-41
2021/10/27 15:20:50;;;;;;;3.45;1.20;;;17.00;99.90;;;15.63;71.80;101838.34;2569667;30;137394;-39
2021/10/27 15:23:43;;;;;;;3.42;1.20;;;16.90;99.90;;;15.54;72.73;101834.19;2567662;30;138217;-39
2021/10/27 15:29:24;;;;;;;3.58;1.02;;;16.80;99.90;;;15.37;72.09;101831.13;2567436;30;137268;-38